Time;durP1;ratioP1;P1;durP2;ratioP2;P2;SDS_P1;SDS_P2;PMS_P1;PMS_P2;Temp;Humidity;BMP_temperature;BMP_pressure;BME280_temperature;BME280_humidity;BME280_pressure;Samples;Min_cycle;Max_cycle;Signal;HPM_P1;HPM_P2
2023/05/17 00:02:35;;;;;;;;;;;;;;;21.47;52.60;101208.64;2322913;76;50876;-74
2023/05/17 00:05:37;;;;;;;;;;;;;;;21.45;52.58;101207.50;2349595;75;51547;-75
2023/05/17 00:08:39;;;;;;;;;;;;;;;21.44;52.64;101203.64;2347678;74;51484;-75
2023/05/17 00:11:40;;;;;;;;;;;;;;;21.44;52.64;101197.73;2349821;74;51549;-74
2023/05/17 00:14:42;;;;;;;;;;;;;;;21.44;52.62;101200.42;2325178;75;51710;-74
2023/05/17 00:17:43;;;;;;;;;;;;;;;21.44;52.62;101199.08;2354973;74;51407;-74
2023/05/17 00:20:45;;;;;;;;;;;;;;;21.44;52.62;101200.42;2355958;75;53494;-74
2023/05/17 00:23:47;;;;;;;;;;;;;;;21.45;52.63;101198.08;2353856;74;50730;-74
2023/05/17 00:26:48;;;;;;;;;;;;;;;21.44;52.67;101200.42;2328917;74;52528;-75
2023/05/17 00:29:50;;;;;;;;;;;;;;;21.42;52.71;101198.43;2356134;75;51309;-74
2023/05/17 00:32:52;;;;;;;;;;;;;;;21.42;52.76;101198.95;2354025;74;52251;-76
2023/05/17 00:35:53;;;;;;;;;;;;;;;21.42;52.84;101190.88;2356125;75;50643;-76
2023/05/17 00:38:55;;;;;;;;;;;;;;;21.43;52.83;101212.75;2327430;75;52382;-76
2023/05/17 00:41:56;;;;;;;;;;;;;;;21.44;52.78;101209.85;2355637;75;52224;-76
2023/05/17 00:44:58;;;;;;;;;;;;;;;21.39;53.02;101201.50;2348711;75;50234;-76
2023/05/17 00:48:00;;;;;;;;;;;;;;;21.39;52.92;101204.72;2316280;75;49965;-75
2023/05/17 00:51:01;;;;;;;;;;;;;;;21.39;52.90;101202.84;2320434;75;51111;-75
2023/05/17 00:54:03;;;;;;;;;;;;;;;21.38;52.88;101202.54;2323193;76;51437;-75
2023/05/17 00:57:05;;;;;;;;;;;;;;;21.38;52.98;101198.50;2322948;75;50305;-75
2023/05/17 01:00:07;;;;;;;;;;;;;;;21.39;52.89;101196.12;2323425;76;51458;-74
2023/05/17 01:03:09;;;;;;;;;;;;;;;21.38;52.98;101197.16;2285823;75;51311;-74
2023/05/17 01:06:10;;;;;;;;;;;;;;;21.36;53.18;101200.51;2298285;75;50400;-74
2023/05/17 01:09:12;;;;;;;;;;;;;;;21.39;53.02;101205.54;2322334;76;50328;-75
2023/05/17 01:12:32;;;;;;;;;;;;;;;21.40;52.87;101203.68;2323008;75;50650;-76
2023/05/17 01:15:34;;;;;;;;;;;;;;;21.41;52.88;101206.71;2322621;75;51170;-73
2023/05/17 01:18:43;;;;;;;;;;;;;;;21.40;52.84;101204.53;2350525;75;50451;-75
2023/05/17 01:21:47;;;;;;;;;;;;;;;21.42;52.75;101205.67;2353512;75;50329;-74
2023/05/17 01:24:50;;;;;;;;;;;;;;;21.41;52.76;101210.75;2354130;75;50295;-75
2023/05/17 01:27:51;;;;;;;;;;;;;;;21.40;52.82;101200.98;2327212;75;51292;-75
2023/05/17 01:30:53;;;;;;;;;;;;;;;21.38;52.84;101210.61;2354143;75;51450;-75
2023/05/17 01:33:57;;;;;;;;;;;;;;;21.41;52.81;101214.79;2353943;75;51418;-75
2023/05/17 01:36:58;;;;;;;;;;;;;;;21.39;52.85;101215.48;2355996;74;22435;-75
2023/05/17 01:40:00;;;;;;;;;;;;;;;21.41;52.79;101220.17;2327613;75;52509;-75
2023/05/17 01:43:06;;;;;;;;;;;;;;;21.39;52.75;101223.05;2353646;75;50288;-73
2023/05/17 01:46:18;;;;;;;;;;;;;;;21.40;52.78;101229.25;2340983;75;50788;-75
2023/05/17 01:49:30;;;;;;;;;;;;;;;21.39;52.73;101232.47;2354687;75;51427;-73
2023/05/17 01:52:33;;;;;;;;;;;;;;;21.37;52.88;101229.09;2329284;75;52385;-73
2023/05/17 01:55:39;;;;;;;;;;;;;;;21.38;52.87;101228.11;2354313;75;51467;-73
2023/05/17 01:58:47;;;;;;;;;;;;;;;21.39;52.97;101220.34;2354490;75;50659;-73
2023/05/17 02:01:49;;;;;;;;;;;;;;;21.40;52.90;101232.80;2354504;75;51515;-74
2023/05/17 02:04:50;;;;;;;;;;;;;;;21.40;52.92;101226.08;2387176;74;52300;-74
2023/05/17 02:07:52;;;;;;;;;;;;;;;21.41;52.94;101232.28;2356449;75;50262;-74
2023/05/17 02:10:53;;;;;;;;;;;;;;;21.38;52.99;101224.08;2356732;75;49670;-74
2023/05/17 02:13:55;;;;;;;;;;;;;;;21.38;53.01;101225.42;2354517;75;50645;-74
2023/05/17 02:16:57;;;;;;;;;;;;;;;21.38;53.02;101228.59;2329005;75;51265;-73
2023/05/17 02:19:58;;;;;;;;;;;;;;;21.38;52.99;101233.50;2355829;75;50200;-73
2023/05/17 02:23:00;;;;;;;;;;;;;;;21.37;53.02;101226.39;2353784;75;50369;-75
2023/05/17 02:26:01;;;;;;;;;;;;;;;21.37;53.02;101221.01;2353885;75;51470;-73
2023/05/17 02:29:03;;;;;;;;;;;;;;;21.39;53.03;101227.59;2386268;74;52356;-74
2023/05/17 02:32:05;;;;;;;;;;;;;;;21.37;53.06;101220.18;2355885;75;51419;-75
2023/05/17 02:35:07;;;;;;;;;;;;;;;21.36;53.07;101211.27;2353813;75;50163;-73
2023/05/17 02:38:08;;;;;;;;;;;;;;;21.37;52.99;101212.93;2327243;75;51995;-74
2023/05/17 02:41:10;;;;;;;;;;;;;;;21.36;53.21;101209.93;2378717;74;52552;-74
2023/05/17 02:44:12;;;;;;;;;;;;;;;21.37;53.14;101208.06;2355500;75;51421;-74
2023/05/17 02:47:13;;;;;;;;;;;;;;;21.35;53.17;101210.97;2353680;75;51420;-73
2023/05/17 02:50:15;;;;;;;;;;;;;;;21.34;53.12;101207.93;2353712;75;50235;-73
2023/05/17 02:53:16;;;;;;;;;;;;;;;21.35;53.14;101210.11;2327620;75;51213;-73
2023/05/17 02:56:18;;;;;;;;;;;;;;;21.35;53.16;101207.41;2355602;75;52276;-74
2023/05/17 02:59:19;;;;;;;;;;;;;;;21.34;53.09;101217.35;2353777;75;50234;-75
2023/05/17 03:02:21;;;;;;;;;;;;;;;21.34;53.08;101216.01;2353749;75;51430;-75
2023/05/17 03:05:23;;;;;;;;;;;;;;;21.35;53.08;101220.38;2386258;74;51622;-75
2023/05/17 03:08:25;;;;;;;;;;;;;;;21.35;53.04;101224.42;2355781;75;50287;-73
2023/05/17 03:11:27;;;;;;;;;;;;;;;21.34;53.07;101226.77;2353809;75;51540;-75
2023/05/17 03:14:28;;;;;;;;;;;;;;;21.35;53.06;101235.19;2356344;74;51490;-75
2023/05/17 03:17:30;;;;;;;;;;;;;;;21.34;53.11;101234.02;2379023;74;51161;-75
2023/05/17 03:20:31;;;;;;;;;;;;;;;21.34;53.10;101241.58;2354655;75;51504;-74
2023/05/17 03:23:33;;;;;;;;;;;;;;;21.35;53.08;101243.27;2354865;75;50226;-75
2023/05/17 03:26:34;;;;;;;;;;;;;;;21.35;53.19;101242.41;2356326;75;50291;-75
2023/05/17 03:29:36;;;;;;;;;;;;;;;21.34;53.19;101244.27;2379574;74;51143;-74
2023/05/17 03:32:39;;;;;;;;;;;;;;;21.33;53.22;101243.95;2356477;75;50697;-73
2023/05/17 03:35:41;;;;;;;;;;;;;;;21.34;53.21;101249.66;2353855;75;50774;-72
2023/05/17 03:38:42;;;;;;;;;;;;;;;21.31;53.15;101249.52;2356233;75;51402;-73
2023/05/17 03:41:44;;;;;;;;;;;;;;;21.32;53.18;101251.69;2354556;75;50691;-73
2023/05/17 03:44:46;;;;;;;;;;;;;;;21.33;53.12;101253.38;2335763;74;51519;-76
2023/05/17 03:47:47;;;;;;;;;;;;;;;21.33;53.14;101252.03;2323867;75;50320;-73
2023/05/17 03:50:49;;;;;;;;;;;;;;;21.33;53.22;101267.36;2313209;76;50752;-73
2023/05/17 03:53:52;;;;;;;;;;;;;;;21.32;53.22;101265.16;2289448;76;52462;-73
2023/05/17 03:56:54;;;;;;;;;;;;;;;21.34;53.21;101279.78;2306391;75;51471;-73
2023/05/17 03:59:55;;;;;;;;;;;;;;;21.33;53.24;101272.22;2306689;77;50725;-74
2023/05/17 04:02:57;;;;;;;;;;;;;;;21.33;53.24;101284.34;2306665;77;51559;-77
2023/05/17 04:06:09;;;;;;;;;;;;;;;21.33;53.11;101284.34;2308321;77;50296;-74
2023/05/17 04:09:12;;;;;;;;;;;;;;;21.33;53.22;101292.93;2308203;76;51641;-74
2023/05/17 04:12:13;;;;;;;;;;;;;;;21.33;53.15;101292.41;2308490;77;22344;-74
2023/05/17 04:15:15;;;;;;;;;;;;;;;21.31;53.28;101292.59;2305316;76;50642;-74
2023/05/17 04:18:17;;;;;;;;;;;;;;;21.32;53.25;101290.72;2279101;78;52336;-74
2023/05/17 04:21:18;;;;;;;;;;;;;;;21.31;53.21;101289.06;2282543;77;50272;-76
2023/05/17 04:24:20;;;;;;;;;;;;;;;21.31;53.22;101294.45;2281665;77;51546;-73
2023/05/17 04:27:22;;;;;;;;;;;;;;;21.30;53.25;101296.31;2282061;78;51411;-74
2023/05/17 04:30:23;;;;;;;;;;;;;;;21.31;53.22;101301.17;2310234;76;51153;-74
2023/05/17 04:33:25;;;;;;;;;;;;;;;21.31;53.19;101303.88;2310250;76;50733;-74
2023/05/17 04:36:27;;;;;;;;;;;;;;;21.31;53.18;101305.22;2323573;75;50252;-72
2023/05/17 04:39:28;;;;;;;;;;;;;;;21.29;53.28;101317.50;2337924;76;50264;-74
2023/05/17 04:42:30;;;;;;;;;;;;;;;21.31;53.18;101310.08;2328866;76;52207;-74
2023/05/17 04:45:32;;;;;;;;;;;;;;;21.29;53.16;101319.36;2363675;74;50445;-75
2023/05/17 04:48:34;;;;;;;;;;;;;;;21.29;53.10;101324.75;2354180;75;51662;-75
2023/05/17 04:51:35;;;;;;;;;;;;;;;21.30;53.08;101326.44;2354426;75;51448;-74
2023/05/17 04:54:37;;;;;;;;;;;;;;;21.29;53.12;101340.38;2387589;73;52380;-74
2023/05/17 04:57:39;;;;;;;;;;;;;;;21.27;53.53;101345.14;2356058;75;50353;-73
2023/05/17 05:00:40;;;;;;;;;;;;;;;21.27;53.55;101355.05;2354529;75;50017;-74
2023/05/17 05:03:42;;;;;;;;;;;;;;;21.29;53.61;101365.13;2399215;73;50411;-71
2023/05/17 05:06:43;;;;;;;;;;;;;;;21.37;53.56;101367.72;2366319;73;51104;-73
2023/05/17 05:09:45;;;;;;;;;;;;;;;21.43;53.35;101364.34;2330980;75;50250;-71
2023/05/17 05:12:46;;;;;;;;;;;;;;;21.51;53.12;101370.16;2326763;76;50602;-72
2023/05/17 05:15:48;;;;;;;;;;;;;;;21.55;52.81;101376.00;2326033;75;51460;-72
2023/05/17 05:18:50;;;;;;;;;;;;;;;21.57;52.66;101381.52;2355993;73;51647;-72
2023/05/17 05:21:51;;;;;;;;;;;;;;;21.66;52.34;101383.63;2405267;73;51491;-72
2023/05/17 05:24:53;;;;;;;;;;;;;;;21.68;52.29;101385.61;2405335;73;51410;-73
2023/05/17 05:27:54;;;;;;;;;;;;;;;21.74;51.97;101383.53;2413480;73;51516;-72
2023/05/17 05:30:58;;;;;;;;;;;;;;;21.78;51.88;101383.47;2376994;73;52379;-72
2023/05/17 05:33:59;;;;;;;;;;;;;;;21.82;51.66;101379.39;2413772;73;50390;-72
2023/05/17 05:37:01;;;;;;;;;;;;;;;21.85;51.56;101385.75;2413523;73;51536;-72
2023/05/17 05:40:03;;;;;;;;;;;;;;;21.88;51.47;101394.80;2405278;73;51289;-73
2023/05/17 05:43:05;;;;;;;;;;;;;;;21.85;51.40;101395.18;2405894;73;50284;-73
2023/05/17 05:46:06;;;;;;;;;;;;;;;21.84;51.28;101405.64;2371083;74;50756;-77
2023/05/17 05:49:08;;;;;;;;;;;;;;;21.80;51.11;101404.84;2354133;75;52350;-73
2023/05/17 05:52:10;;;;;;;;;;;;;;;21.77;50.96;101409.27;2352195;75;50392;-73
2023/05/17 05:55:11;;;;;;;;;;;;;;;21.74;51.36;101398.35;2328045;74;50122;-74
2023/05/17 05:58:13;;;;;;;;;;;;;;;21.77;51.23;101416.83;2355202;75;50751;-73
2023/05/17 06:01:14;;;;;;;;;;;;;;;21.76;51.06;101421.91;2353776;75;49983;-73
2023/05/17 06:04:16;;;;;;;;;;;;;;;21.73;51.37;101418.20;2351610;75;49966;-75
2023/05/17 06:07:17;;;;;;;;;;;;;;;21.71;51.34;101428.36;2327426;75;51632;-74
2023/05/17 06:10:19;;;;;;;;;;;;;;;21.75;51.13;101437.72;2404858;73;51433;-75
2023/05/17 06:13:21;;;;;;;;;;;;;;;21.73;51.45;101441.11;2377093;74;50371;-74
2023/05/17 06:16:22;;;;;;;;;;;;;;;21.80;51.18;101423.70;2361853;74;50264;-75
2023/05/17 06:19:24;;;;;;;;;;;;;;;21.78;51.39;101433.30;2331125;75;51803;-74
2023/05/17 06:22:25;;;;;;;;;;;;;;;21.73;51.20;101431.19;2360023;75;50660;-75
2023/05/17 06:25:27;;;;;;;;;;;;;;;21.70;51.24;101440.97;2358422;75;51457;-74
2023/05/17 06:28:29;;;;;;;;;;;;;;;21.68;51.28;101452.45;2362226;75;51501;-73
2023/05/17 06:31:30;;;;;;;;;;;;;;;21.76;51.04;101451.53;2330256;75;51703;-73
2023/05/17 06:34:32;;;;;;;;;;;;;;;21.69;51.25;101460.02;2356820;75;50371;-73
2023/05/17 06:37:34;;;;;;;;;;;;;;;21.66;51.16;101449.63;2356855;75;50709;-73
2023/05/17 06:40:35;;;;;;;;;;;;;;;21.73;51.19;101446.01;2353574;75;50535;-74
2023/05/17 06:43:37;;;;;;;;;;;;;;;21.78;50.97;101462.94;2378987;73;51167;-75
2023/05/17 06:46:39;;;;;;;;;;;;;;;21.84;50.82;101458.18;2310054;75;50652;-75
2023/05/17 06:49:40;;;;;;;;;;;;;;;21.80;50.74;101454.69;2311575;76;51451;-75
2023/05/17 06:52:42;;;;;;;;;;;;;;;21.73;50.70;101449.19;2311262;77;51535;-75
2023/05/17 06:55:43;;;;;;;;;;;;;;;21.88;50.71;101440.60;2285369;77;52341;-75
2023/05/17 06:58:45;;;;;;;;;;;;;;;21.98;50.36;101451.11;2309276;77;51403;-74
2023/05/17 07:01:46;;;;;;;;;;;;;;;22.07;50.07;101460.78;2309858;76;50243;-71
2023/05/17 07:04:48;;;;;;;;;;;;;;;22.12;49.83;101451.63;2311331;76;50350;-75
2023/05/17 07:07:49;;;;;;;;;;;;;;;22.15;49.70;101457.16;2285125;77;51623;-75
2023/05/17 07:10:51;;;;;;;;;;;;;;;22.18;49.60;101454.08;2309217;77;50742;-73
2023/05/17 07:13:53;;;;;;;;;;;;;;;22.20;49.49;101468.77;2310856;76;50209;-72
2023/05/17 07:16:55;;;;;;;;;;;;;;;22.20;49.37;101454.77;2303918;76;50719;-73
2023/05/17 07:19:56;;;;;;;;;;;;;;;22.22;49.23;101447.81;2286916;76;50102;-73
2023/05/17 07:22:58;;;;;;;;;;;;;;;22.23;49.13;101460.30;2313096;77;51447;-74
2023/05/17 07:25:59;;;;;;;;;;;;;;;22.24;49.01;101457.91;2319885;76;51513;-74
2023/05/17 07:29:01;;;;;;;;;;;;;;;22.23;49.02;101450.34;2319609;76;51490;-72
2023/05/17 07:32:02;;;;;;;;;;;;;;;22.24;48.92;101463.30;2317172;76;50355;-74
2023/05/17 07:35:04;;;;;;;;;;;;;;;22.26;48.85;101471.53;2311100;76;51408;-74
2023/05/17 07:38:06;;;;;;;;;;;;;;;22.16;48.93;101477.69;2309277;77;51421;-74
2023/05/17 07:41:12;;;;;;;;;;;;;;;22.09;48.86;101489.73;2327135;75;51467;-74
2023/05/17 07:44:14;;;;;;;;;;;;;;;22.10;48.94;101498.14;2353825;75;22433;-74
2023/05/17 07:47:15;;;;;;;;;;;;;;;22.11;48.86;101501.15;2355031;75;51510;-73
2023/05/17 07:50:17;;;;;;;;;;;;;;;22.11;48.89;101507.05;2351390;75;50613;-73
2023/05/17 07:53:19;;;;;;;;;;;;;;;22.13;48.87;101515.28;2351694;74;50129;-73
2023/05/17 07:56:20;;;;;;;;;;;;;;;22.15;48.74;101513.77;2352746;75;50615;-73
2023/05/17 07:59:22;;;;;;;;;;;;;;;22.17;48.70;101519.81;2353092;75;51520;-75
2023/05/17 08:02:23;;;;;;;;;;;;;;;22.17;48.58;101515.77;2353249;74;50188;-75
2023/05/17 08:05:25;;;;;;;;;;;;;;;22.15;48.54;101524.55;2353071;75;50603;-73
2023/05/17 08:08:27;;;;;;;;;;;;;;;22.10;48.49;101525.61;2324509;75;51018;-74
2023/05/17 08:11:30;;;;;;;;;;;;;;;22.11;48.38;101524.58;2351304;75;51430;-74
2023/05/17 08:14:31;;;;;;;;;;;;;;;22.10;48.32;101529.66;2355920;74;51479;-74
2023/05/17 08:17:33;;;;;;;;;;;;;;;22.13;48.28;101531.97;2350545;75;50380;-74
2023/05/17 08:20:35;;;;;;;;;;;;;;;22.11;48.12;101528.62;2378416;74;51656;-73
2023/05/17 08:23:36;;;;;;;;;;;;;;;22.09;48.05;101535.56;2353095;75;50088;-74
2023/05/17 08:26:38;;;;;;;;;;;;;;;22.12;47.99;101535.70;2352732;75;50641;-74
2023/05/17 08:29:39;;;;;;;;;;;;;;;22.11;47.88;101536.70;2352926;74;52027;-74
2023/05/17 08:32:41;;;;;;;;;;;;;;;22.11;47.75;101536.70;2326247;75;51694;-74
2023/05/17 08:35:43;;;;;;;;;;;;;;;22.09;47.80;101542.30;2351304;75;50670;-74
2023/05/17 08:38:45;;;;;;;;;;;;;;;22.08;47.67;101540.60;2350973;75;51577;-73
2023/05/17 08:41:47;;;;;;;;;;;;;;;22.08;47.67;101547.86;2351194;75;50502;-72
2023/05/17 08:44:48;;;;;;;;;;;;;;;22.08;47.57;101540.60;2328670;75;51211;-73
2023/05/17 08:47:53;;;;;;;;;;;;;;;22.12;47.50;101554.57;2353266;75;51450;-72
2023/05/17 08:50:53;;;;;;;;;;;;;;;22.07;47.48;101549.73;2351732;74;22469;-73
2023/05/17 08:53:55;;;;;;;;;;;;;;;22.07;47.57;101551.59;2378511;74;51217;-73
2023/05/17 08:56:58;;;;;;;;;;;;;;;22.06;47.58;101553.94;2350901;75;51448;-72
2023/05/17 08:59:59;;;;;;;;;;;;;;;22.03;47.51;101548.41;2326266;75;50135;-73
2023/05/17 09:03:01;;;;;;;;;;;;;;;22.03;47.42;101547.58;2351166;75;51409;-73
2023/05/17 09:06:03;;;;;;;;;;;;;;;22.00;47.46;101542.56;2351215;75;50378;-74
2023/05/17 09:09:10;;;;;;;;;;;;;;;21.98;47.56;101549.47;2352859;75;51476;-75
2023/05/17 09:12:08;;;;;;;;;;;;;;;21.92;47.48;101544.83;2350350;75;21998;-73
2023/05/17 09:15:16;;;;;;;;;;;;;;;21.92;47.47;101538.92;2354214;74;50275;-74
2023/05/17 09:18:18;;;;;;;;;;;;;;;21.92;47.46;101547.52;2350375;74;50436;-74
2023/05/17 09:21:20;;;;;;;;;;;;;;;21.86;47.49;101549.09;2352840;75;50281;-75
2023/05/17 09:24:29;;;;;;;;;;;;;;;21.85;47.44;101546.05;2324830;75;52601;-75
2023/05/17 09:27:31;;;;;;;;;;;;;;;21.81;47.41;101542.55;2350911;75;50702;-74
2023/05/17 09:30:33;;;;;;;;;;;;;;;21.78;47.53;101547.80;2351240;75;51604;-75
2023/05/17 09:33:37;;;;;;;;;;;;;;;21.77;47.45;101548.83;2351205;75;50648;-74
2023/05/17 09:36:40;;;;;;;;;;;;;;;21.73;47.45;101551.06;2324521;75;50108;-74
2023/05/17 09:39:43;;;;;;;;;;;;;;;21.71;47.56;101544.19;2351317;75;49907;-74
2023/05/17 09:42:45;;;;;;;;;;;;;;;21.69;47.46;101561.86;2351375;74;50729;-74
2023/05/17 09:45:48;;;;;;;;;;;;;;;21.71;47.50;101557.66;2324660;75;49963;-74
2023/05/17 09:48:55;;;;;;;;;;;;;;;21.71;47.33;101563.04;2329058;75;52555;-75
2023/05/17 09:51:56;;;;;;;;;;;;;;;21.70;47.43;101551.91;2374886;73;51521;-74
2023/05/17 09:54:58;;;;;;;;;;;;;;;21.72;47.38;101559.31;2380720;73;50270;-74
2023/05/17 09:58:03;;;;;;;;;;;;;;;21.74;47.16;101547.34;2378006;73;51439;-76
2023/05/17 10:01:06;;;;;;;;;;;;;;;21.73;47.21;101549.72;2350417;73;51265;-77
2023/05/17 10:04:11;;;;;;;;;;;;;;;21.71;47.33;101541.49;2374841;73;50664;-76
2023/05/17 10:07:12;;;;;;;;;;;;;;;21.72;47.37;101552.06;2362723;74;50191;-76
2023/05/17 10:10:14;;;;;;;;;;;;;;;21.69;47.56;101552.44;2379067;73;50618;-76
2023/05/17 10:13:17;;;;;;;;;;;;;;;21.67;47.42;101550.94;2371523;74;51062;-76
2023/05/17 10:16:22;;;;;;;;;;;;;;;21.67;47.38;101565.76;2355532;74;50172;-76
2023/05/17 10:19:23;;;;;;;;;;;;;;;21.68;47.49;101557.98;2385082;73;22392;-74
2023/05/17 10:22:24;;;;;;;;;;;;;;;21.69;47.35;101556.98;2391360;74;50122;-74
2023/05/17 10:25:26;;;;;;;;;;;;;;;21.63;47.57;101565.30;2363155;75;50704;-75
2023/05/17 10:28:28;;;;;;;;;;;;;;;21.61;47.70;101559.76;2362966;75;51454;-73
2023/05/17 10:31:30;;;;;;;;;;;;;;;21.64;47.81;101567.47;2381456;73;51490;-74
2023/05/17 10:34:31;;;;;;;;;;;;;;;21.61;47.75;101562.45;2397855;74;50496;-74
2023/05/17 10:37:33;;;;;;;;;;;;;;;21.59;47.76;101564.48;2371597;74;52351;-74
2023/05/17 10:40:35;;;;;;;;;;;;;;;21.59;47.76;101563.14;2397940;74;52571;-74
2023/05/17 10:43:37;;;;;;;;;;;;;;;21.57;47.87;101565.16;2395602;74;50663;-74
2023/05/17 10:46:39;;;;;;;;;;;;;;;21.54;47.82;101567.70;2355231;75;49972;-74
2023/05/17 10:49:43;;;;;;;;;;;;;;;21.52;47.99;101557.62;2309215;75;51190;-74
2023/05/17 10:52:47;;;;;;;;;;;;;;;21.53;47.83;101575.47;2349999;75;22337;-74
2023/05/17 10:55:49;;;;;;;;;;;;;;;21.53;47.99;101574.95;2352214;75;51328;-76
2023/05/17 10:58:52;;;;;;;;;;;;;;;21.56;48.00;101578.31;2349774;75;51483;-74
2023/05/17 11:02:06;;;;;;;;;;;;;;;21.55;48.07;101576.62;2323620;75;52457;-74
2023/05/17 11:05:06;;;;;;;;;;;;;;;21.53;48.04;101581.69;2351308;75;22387;-75
2023/05/17 11:08:14;;;;;;;;;;;;;;;21.53;47.98;101569.57;2351462;75;50841;-74
2023/05/17 11:11:19;;;;;;;;;;;;;;;21.55;47.92;101568.03;2349980;75;51581;-74
2023/05/17 11:14:21;;;;;;;;;;;;;;;21.56;47.93;101564.33;2381641;74;52507;-74
2023/05/17 11:17:40;;;;;;;;;;;;;;;21.55;47.93;101576.62;2352589;75;51554;-73
2023/05/17 11:20:41;;;;;;;;;;;;;;;21.55;47.87;101576.62;2350978;75;50684;-74
2023/05/17 11:23:43;;;;;;;;;;;;;;;21.55;47.86;101577.97;2353068;75;50480;-74
2023/05/17 11:26:45;;;;;;;;;;;;;;;21.53;47.82;101564.19;2378134;74;51037;-74
2023/05/17 11:29:50;;;;;;;;;;;;;;;21.55;47.73;101584.70;2352991;75;50290;-74
2023/05/17 11:32:52;;;;;;;;;;;;;;;21.52;47.82;101580.00;2351041;74;51502;-74
2023/05/17 11:35:54;;;;;;;;;;;;;;;21.51;47.78;101570.77;2351166;75;50419;-74
2023/05/17 11:39:10;;;;;;;;;;;;;;;21.52;47.69;101569.73;2325789;75;51608;-74
2023/05/17 11:42:13;;;;;;;;;;;;;;;21.50;47.77;101564.55;2352839;75;50126;-75
2023/05/17 11:45:14;;;;;;;;;;;;;;;21.49;47.77;101565.55;2355615;75;51711;-74
2023/05/17 11:48:17;;;;;;;;;;;;;;;21.50;47.78;101568.59;2349010;75;49989;-72
2023/05/17 11:51:19;;;;;;;;;;;;;;;21.49;47.74;101572.28;2378357;74;52628;-73
2023/05/17 11:54:22;;;;;;;;;;;;;;;21.49;47.80;101568.76;2351263;75;51359;-74
2023/05/17 11:57:30;;;;;;;;;;;;;;;21.48;47.79;101571.13;2350294;75;51452;-72
2023/05/17 12:00:31;;;;;;;;;;;;;;;21.46;47.86;101563.22;2351200;75;50676;-72
2023/05/17 12:03:33;;;;;;;;;;;;;;;21.47;47.78;101570.27;2351075;75;51549;-72
2023/05/17 12:06:35;;;;;;;;;;;;;;;21.47;47.79;101573.48;2352728;75;50359;-73
2023/05/17 12:09:38;;;;;;;;;;;;;;;21.47;47.85;101572.97;2351143;75;50878;-73
2023/05/17 12:12:40;;;;;;;;;;;;;;;21.47;47.84;101569.44;2351238;75;50249;-73
2023/05/17 12:15:43;;;;;;;;;;;;;;;21.46;47.81;101573.16;2355561;75;51642;-73
2023/05/17 12:18:46;;;;;;;;;;;;;;;21.46;47.85;101571.30;2362387;75;51502;-73
2023/05/17 12:21:48;;;;;;;;;;;;;;;21.45;47.90;101575.51;2363387;75;50800;-72
2023/05/17 12:24:50;;;;;;;;;;;;;;;21.44;47.91;101568.45;2363276;75;50447;-75
2023/05/17 12:27:52;;;;;;;;;;;;;;;21.42;47.95;101578.05;2337935;75;51664;-76
2023/05/17 12:30:56;;;;;;;;;;;;;;;21.43;47.84;101567.62;2363325;74;50326;-76
2023/05/17 12:33:58;;;;;;;;;;;;;;;21.41;47.93;101556.71;2363388;75;22365;-74
2023/05/17 12:36:59;;;;;;;;;;;;;;;21.42;47.85;101561.89;2363166;75;50331;-74
2023/05/17 12:40:03;;;;;;;;;;;;;;;21.43;47.88;101574.88;2338505;74;51173;-76
2023/05/17 12:43:04;;;;;;;;;;;;;;;21.41;47.89;101561.58;2363609;75;22345;-76
2023/05/17 12:46:11;;;;;;;;;;;;;;;21.41;47.88;101571.00;2353238;74;50789;-74
2023/05/17 12:49:12;;;;;;;;;;;;;;;21.43;47.81;101563.59;2351319;75;50460;-75
2023/05/17 12:52:14;;;;;;;;;;;;;;;21.42;47.90;101581.26;2326183;75;52203;-75
2023/05/17 12:55:16;;;;;;;;;;;;;;;21.42;47.90;101578.05;2352911;75;50645;-76
2023/05/17 12:58:17;;;;;;;;;;;;;;;21.40;47.98;101573.86;2350866;75;50335;-76
2023/05/17 13:01:19;;;;;;;;;;;;;;;21.42;47.89;101571.32;2351421;75;50627;-75
2023/05/17 13:04:22;;;;;;;;;;;;;;;21.39;48.16;101564.12;2326316;75;50088;-75
2023/05/17 13:07:24;;;;;;;;;;;;;;;21.36;48.16;101575.22;2324488;75;52689;-74
2023/05/17 13:10:26;;;;;;;;;;;;;;;21.39;48.16;101566.81;2353521;75;50461;-75
2023/05/17 13:13:29;;;;;;;;;;;;;;;21.38;48.22;101557.04;2351786;75;50842;-75
2023/05/17 13:16:31;;;;;;;;;;;;;;;21.39;48.30;101566.81;2325376;75;52658;-74
2023/05/17 13:19:34;;;;;;;;;;;;;;;21.38;48.26;101565.98;2354650;75;50602;-74
2023/05/17 13:22:37;;;;;;;;;;;;;;;21.37;48.30;101570.16;2355616;75;50578;-75
2023/05/17 13:25:39;;;;;;;;;;;;;;;21.36;48.32;101567.98;2351560;74;51616;-76
2023/05/17 13:28:41;;;;;;;;;;;;;;;21.38;48.30;101582.14;2353399;74;52062;-76
2023/05/17 13:31:42;;;;;;;;;;;;;;;21.37;48.33;101568.30;2352677;75;51523;-76
2023/05/17 13:34:44;;;;;;;;;;;;;;;21.38;48.38;101567.33;2356472;75;51453;-75
2023/05/17 13:37:45;;;;;;;;;;;;;;;21.38;48.38;101565.98;2354221;75;51531;-74
2023/05/17 13:40:47;;;;;;;;;;;;;;;21.38;48.41;101566.47;2379935;74;49558;-75
2023/05/17 13:43:49;;;;;;;;;;;;;;;21.39;48.42;101573.55;2352273;75;51510;-74
2023/05/17 13:46:50;;;;;;;;;;;;;;;21.38;48.48;101578.09;2353468;74;51459;-75
2023/05/17 13:49:52;;;;;;;;;;;;;;;21.36;48.52;101574.70;2353011;75;50769;-76
2023/05/17 13:52:53;;;;;;;;;;;;;;;21.35;48.55;101577.56;2324332;75;51189;-76
2023/05/17 13:55:55;;;;;;;;;;;;;;;21.35;48.58;101574.39;2352574;75;50429;-75
2023/05/17 13:58:57;;;;;;;;;;;;;;;21.35;48.59;101573.05;2352304;74;50298;-76
2023/05/17 14:01:59;;;;;;;;;;;;;;;21.36;48.62;101564.45;2352318;75;51515;-76
2023/05/17 14:05:01;;;;;;;;;;;;;;;21.37;48.63;101575.54;2377454;74;52469;-76
2023/05/17 14:08:02;;;;;;;;;;;;;;;21.38;48.72;101577.23;2352063;74;51520;-76
2023/05/17 14:11:05;;;;;;;;;;;;;;;21.37;48.75;101581.75;2350359;74;50618;-75
2023/05/17 14:14:06;;;;;;;;;;;;;;;21.40;48.75;101582.80;2351720;75;50317;-76
2023/05/17 14:17:08;;;;;;;;;;;;;;;21.40;48.71;101587.32;2331455;75;49122;-76
2023/05/17 14:20:10;;;;;;;;;;;;;;;21.40;48.82;101580.59;2353497;74;50676;-76
2023/05/17 14:23:11;;;;;;;;;;;;;;;21.41;48.74;101585.81;2353390;75;50325;-76
2023/05/17 14:26:13;;;;;;;;;;;;;;;21.42;48.86;101591.52;2353052;74;51519;-75
2023/05/17 14:29:15;;;;;;;;;;;;;;;21.43;48.75;101597.25;2378646;74;51023;-76
2023/05/17 14:32:17;;;;;;;;;;;;;;;21.41;48.85;101592.55;2351400;75;50690;-76
2023/05/17 14:35:18;;;;;;;;;;;;;;;21.42;48.92;101601.45;2351489;75;50705;-75
2023/05/17 14:38:21;;;;;;;;;;;;;;;21.43;48.88;101595.07;2352857;75;50262;-76
2023/05/17 14:41:23;;;;;;;;;;;;;;;21.42;48.85;101598.76;2325171;75;52430;-76
2023/05/17 14:44:25;;;;;;;;;;;;;;;21.41;48.90;101600.62;2348813;74;52170;-76
2023/05/17 14:47:27;;;;;;;;;;;;;;;21.41;48.82;101599.78;2356911;74;51594;-75
2023/05/17 14:50:31;;;;;;;;;;;;;;;21.41;48.83;101616.77;2362155;74;50628;-74
2023/05/17 14:53:32;;;;;;;;;;;;;;;21.41;48.87;101620.81;2356747;74;22257;-76
2023/05/17 14:56:34;;;;;;;;;;;;;;;21.42;48.88;101611.70;2356590;75;49999;-75
2023/05/17 14:59:35;;;;;;;;;;;;;;;21.42;48.87;101625.68;2353158;75;50056;-76
2023/05/17 15:02:37;;;;;;;;;;;;;;;21.42;48.87;101635.94;2353150;75;50198;-76
2023/05/17 15:05:39;;;;;;;;;;;;;;;21.41;48.89;101632.93;2378563;74;52432;-76
2023/05/17 15:08:40;;;;;;;;;;;;;;;21.43;48.91;101625.52;2350873;75;51541;-76
2023/05/17 15:11:43;;;;;;;;;;;;;;;21.43;48.91;101629.55;2353010;74;51476;-75
2023/05/17 15:14:46;;;;;;;;;;;;;;;21.43;48.93;101634.94;2354837;75;50683;-75
2023/05/17 15:17:48;;;;;;;;;;;;;;;21.42;49.00;101633.76;2324710;75;52504;-76
2023/05/17 15:20:49;;;;;;;;;;;;;;;21.42;49.05;101634.59;2353004;75;51531;-75
2023/05/17 15:23:51;;;;;;;;;;;;;;;21.44;49.01;101635.77;2351204;75;51479;-75
2023/05/17 15:26:52;;;;;;;;;;;;;;;21.45;48.96;101642.34;2351058;75;50612;-76
2023/05/17 15:29:54;;;;;;;;;;;;;;;21.43;48.99;101638.98;2378969;73;52633;-76
2023/05/17 15:32:57;;;;;;;;;;;;;;;21.43;49.05;101647.57;2353071;75;51600;-74
2023/05/17 15:35:59;;;;;;;;;;;;;;;21.42;49.08;101650.75;2351245;74;50087;-76